Nova Era, Brazil
Current Conditions -  °F | °C
As of 6:00 PM on Monday 22 Dec 2014 (Local Time) from SBLS Reporting Station
Broken Clouds Broken Clouds  
Wind Chill: 82°   Ceiling: 10000
Heat Index: 85°   Visibility: 6mi
Dew Point: 66°   Wind: 0mph
Humidity: 58%   Direction: NA
Pressure: 29.97"   Gusts: NA
Location:  19.75°S, 43.04°W
Report Text: SBLS 222000Z 00000KT 9999 SCT025 BKN100 28/19 Q1015
Loading
Personal Weather Stations






























Interactive Weather Map New forecast layout! Learn more

10-Day Weather Forecast

Advertisements
Track Severe Weather on mobile